Time;durP1;ratioP1;P1;durP2;ratioP2;P2;SDS_P1;SDS_P2;PMS_P1;PMS_P2;Temp;Humidity;BMP_temperature;BMP_pressure;BME280_temperature;BME280_humidity;BME280_pressure;Samples;Min_cycle;Max_cycle;Signal;HPM_P1;HPM_P2
2021/05/03 00:00:10;;;;;;;5.25;2.75;;;18.30;48.70;;;;;;4941347;29;20224;-83
2021/05/03 00:02:37;;;;;;;4.53;2.60;;;18.30;48.90;;;;;;4942006;29;20178;-84
2021/05/03 00:05:04;;;;;;;3.47;2.50;;;18.30;48.80;;;;;;4942284;29;20522;-83
2021/05/03 00:07:31;;;;;;;6.50;3.10;;;18.30;48.90;;;;;;4947368;29;20165;-84
2021/05/03 00:09:57;;;;;;;5.97;2.42;;;18.30;49.60;;;;;;4947939;29;20168;-83
2021/05/03 00:12:24;;;;;;;6.90;2.65;;;18.30;49.10;;;;;;4947854;29;20224;-84
2021/05/03 00:14:51;;;;;;;5.25;2.55;;;18.30;49.30;;;;;;4947148;29;20205;-83
2021/05/03 00:17:18;;;;;;;6.20;2.65;;;18.30;49.00;;;;;;4948188;29;20720;-82
2021/05/03 00:19:45;;;;;;;5.28;2.60;;;18.30;49.20;;;;;;4948254;29;20185;-83
2021/05/03 00:22:11;;;;;;;5.93;2.53;;;18.30;49.00;;;;;;4947523;29;20173;-84
2021/05/03 00:24:38;;;;;;;3.80;2.60;;;18.20;49.00;;;;;;4948079;29;20184;-83
2021/05/03 00:27:05;;;;;;;3.95;2.20;;;18.30;49.40;;;;;;4965086;28;20216;-84
2021/05/03 00:29:32;;;;;;;4.93;2.60;;;18.20;49.10;;;;;;4965385;29;20162;-84
2021/05/03 00:32:07;;;;;;;7.43;2.53;;;18.20;49.00;;;;;;4947358;29;20172;-83
2021/05/03 00:34:33;;;;;;;5.30;2.50;;;18.20;49.20;;;;;;4946973;29;20181;-83
2021/05/03 00:37:00;;;;;;;4.93;2.58;;;18.20;49.30;;;;;;4931742;28;20173;-83
2021/05/03 00:39:27;;;;;;;5.90;2.60;;;18.20;49.60;;;;;;4931532;29;20205;-84
2021/05/03 00:41:53;;;;;;;5.20;2.63;;;18.20;49.50;;;;;;4963108;29;20173;-84
2021/05/03 00:44:28;;;;;;;5.00;2.42;;;18.20;49.40;;;;;;4947245;29;20173;-82
2021/05/03 00:46:58;;;;;;;6.20;2.75;;;18.20;49.10;;;;;;4965283;28;20153;-84
2021/05/03 00:49:25;;;;;;;6.20;2.80;;;18.20;49.00;;;;;;4932379;29;20173;-83
2021/05/03 00:51:51;;;;;;;5.30;2.40;;;18.20;49.20;;;;;;4965079;28;20242;-84
2021/05/03 00:54:17;;;;;;;4.32;2.60;;;18.20;49.00;;;;;;4947986;29;20601;-82
2021/05/03 00:56:44;;;;;;;5.25;2.40;;;18.20;49.00;;;;;;4947660;29;20169;-84
2021/05/03 00:59:09;;;;;;;5.70;2.67;;;18.20;49.00;;;;;;4947121;28;20609;-83
2021/05/03 01:01:36;;;;;;;3.78;2.42;;;18.20;49.00;;;;;;4931911;29;20156;-83
2021/05/03 01:04:02;;;;;;;5.97;2.90;;;18.20;49.40;;;;;;4964704;28;20161;-82
2021/05/03 01:06:29;;;;;;;4.97;2.55;;;18.20;49.20;;;;;;4947457;29;20181;-85
2021/05/03 01:08:55;;;;;;;4.70;2.63;;;18.20;49.10;;;;;;4931890;29;20200;-83
2021/05/03 01:11:22;;;;;;;7.07;2.70;;;18.20;49.20;;;;;;4947324;29;20193;-82
2021/05/03 01:13:49;;;;;;;5.00;2.70;;;18.20;49.10;;;;;;4964516;28;20224;-84
2021/05/03 01:16:15;;;;;;;4.07;2.35;;;18.20;49.10;;;;;;4947345;29;20189;-84
2021/05/03 01:18:42;;;;;;;5.78;2.45;;;18.20;49.10;;;;;;4944627;29;20233;-84
2021/05/03 01:21:08;;;;;;;4.40;2.60;;;18.20;49.00;;;;;;4944803;29;20188;-84
2021/05/03 01:23:35;;;;;;;4.47;2.25;;;18.20;49.10;;;;;;4944494;29;20200;-83
2021/05/03 01:26:01;;;;;;;4.70;2.58;;;18.20;49.10;;;;;;4928332;29;20647;-84
2021/05/03 01:28:28;;;;;;;4.65;2.35;;;18.20;49.10;;;;;;4961753;29;20240;-82
2021/05/03 01:30:56;;;;;;;4.60;2.70;;;18.20;49.20;;;;;;4960525;29;20165;-82
2021/05/03 01:33:22;;;;;;;6.40;2.78;;;18.20;49.10;;;;;;4944413;29;20279;-84
2021/05/03 01:35:49;;;;;;;6.03;2.60;;;18.20;49.00;;;;;;4944016;29;20196;-82
2021/05/03 01:38:16;;;;;;;4.30;2.70;;;18.10;49.10;;;;;;4928616;29;20176;-85
2021/05/03 01:40:43;;;;;;;5.35;2.30;;;18.20;49.10;;;;;;4944831;29;20165;-84
2021/05/03 01:43:16;;;;;;;6.25;2.65;;;18.20;49.10;;;;;;4945007;29;20252;-84
2021/05/03 01:45:43;;;;;;;4.50;2.40;;;18.20;49.10;;;;;;4962341;29;20157;-83
2021/05/03 01:48:20;;;;;;;3.60;2.60;;;18.20;49.10;;;;;;4928206;29;20260;-84
2021/05/03 01:50:47;;;;;;;4.75;2.65;;;18.20;49.10;;;;;;4927875;29;20204;-82
2021/05/03 01:53:13;;;;;;;4.80;2.60;;;18.10;49.10;;;;;;4943939;29;20157;-84
2021/05/03 01:55:39;;;;;;;7.07;2.83;;;18.10;49.00;;;;;;4943392;29;20202;-84
2021/05/03 01:58:14;;;;;;;4.30;2.53;;;18.10;49.10;;;;;;4927456;29;20170;-82
2021/05/03 02:00:41;;;;;;;5.65;2.42;;;18.10;49.00;;;;;;4943448;29;20236;-82
2021/05/03 02:03:24;;;;;;;4.63;2.33;;;18.10;49.00;;;;;;4927569;29;20174;-84
2021/05/03 02:06:03;;;;;;;6.05;2.50;;;18.10;49.20;;;;;;4943671;29;20201;-82
2021/05/03 02:08:30;;;;;;;4.30;2.92;;;18.10;49.00;;;;;;4943533;29;20216;-83
2021/05/03 02:10:57;;;;;;;6.72;2.90;;;18.10;48.80;;;;;;4943475;29;20189;-82
2021/05/03 02:13:24;;;;;;;5.50;2.45;;;18.10;49.10;;;;;;4942797;29;20592;-84
2021/05/03 02:15:51;;;;;;;7.32;2.65;;;18.10;49.00;;;;;;4943169;29;20193;-84
2021/05/03 02:18:18;;;;;;;5.13;2.35;;;18.10;49.10;;;;;;4943009;29;20540;-84
2021/05/03 02:20:46;;;;;;;3.03;2.40;;;18.10;49.00;;;;;;4943018;29;20158;-83
2021/05/03 02:23:13;;;;;;;5.00;2.20;;;18.10;49.40;;;;;;4960027;29;20157;-84
2021/05/03 02:25:39;;;;;;;5.43;2.40;;;18.10;49.30;;;;;;4942562;29;20625;-82
2021/05/03 02:28:05;;;;;;;4.13;2.45;;;18.10;49.20;;;;;;4942321;29;20173;-83
2021/05/03 02:30:31;;;;;;;4.30;2.78;;;18.10;49.10;;;;;;4959111;28;20158;-82
2021/05/03 02:32:57;;;;;;;4.72;2.58;;;18.10;49.20;;;;;;4942385;29;20169;-83
2021/05/03 02:35:24;;;;;;;7.00;2.53;;;18.00;49.20;;;;;;4942136;29;20293;-84
2021/05/03 02:37:56;;;;;;;3.97;2.50;;;18.10;49.20;;;;;;4926302;29;20206;-84
2021/05/03 02:40:24;;;;;;;6.03;2.85;;;18.10;49.10;;;;;;4926948;29;20162;-82
2021/05/03 02:42:53;;;;;;;4.53;2.60;;;18.10;49.20;;;;;;4926451;29;20168;-84
2021/05/03 02:45:19;;;;;;;4.10;2.17;;;18.00;49.10;;;;;;4926653;29;20180;-83
2021/05/03 02:47:45;;;;;;;3.03;2.30;;;18.10;49.10;;;;;;4926293;29;20165;-82
2021/05/03 02:50:22;;;;;;;5.63;2.45;;;18.10;49.10;;;;;;4926545;29;20158;-83
2021/05/03 02:52:48;;;;;;;4.22;2.50;;;18.10;49.10;;;;;;4925895;29;20197;-84
2021/05/03 02:55:15;;;;;;;3.42;2.60;;;18.10;49.20;;;;;;4941715;29;20286;-83
2021/05/03 02:57:45;;;;;;;3.95;2.30;;;18.10;49.30;;;;;;4941893;29;20351;-83
2021/05/03 03:00:13;;;;;;;4.28;2.45;;;18.00;49.20;;;;;;4941474;29;20216;-84
2021/05/03 03:02:39;;;;;;;4.13;2.53;;;18.00;49.20;;;;;;4925756;29;20162;-82
2021/05/03 03:05:05;;;;;;;3.28;2.15;;;18.00;49.20;;;;;;4941632;29;20173;-84
2021/05/03 03:07:30;;;;;;;3.03;2.40;;;18.00;49.10;;;;;;4941137;29;20309;-84
2021/05/03 03:09:56;;;;;;;3.92;2.47;;;18.00;49.20;;;;;;4925248;29;20198;-83
2021/05/03 03:12:22;;;;;;;2.80;2.08;;;18.00;49.20;;;;;;4941303;29;20170;-83
2021/05/03 03:14:48;;;;;;;3.78;2.40;;;18.00;49.20;;;;;;4958046;29;20220;-84
2021/05/03 03:17:15;;;;;;;4.63;2.20;;;18.00;49.30;;;;;;4940701;29;20169;-84
2021/05/03 03:19:40;;;;;;;4.55;2.38;;;18.00;49.10;;;;;;4940857;29;20192;-83
2021/05/03 03:22:07;;;;;;;4.38;2.35;;;18.00;49.20;;;;;;4924249;29;20538;-83
2021/05/03 03:24:34;;;;;;;4.32;2.63;;;18.00;49.60;;;;;;4941047;29;20209;-83
2021/05/03 03:26:59;;;;;;;5.47;2.55;;;18.00;49.40;;;;;;4957867;29;20158;-82
2021/05/03 03:29:26;;;;;;;5.60;2.50;;;18.00;49.00;;;;;;4957661;29;20181;-82
2021/05/03 03:31:52;;;;;;;5.53;2.75;;;18.00;49.40;;;;;;4940370;29;20635;-83
2021/05/03 03:34:19;;;;;;;5.05;2.50;;;18.00;49.30;;;;;;4940252;29;20173;-82
2021/05/03 03:36:45;;;;;;;4.35;2.30;;;18.00;49.30;;;;;;4924480;29;20185;-83
2021/05/03 03:39:10;;;;;;;3.35;2.40;;;18.00;49.20;;;;;;4940051;29;20165;-84
2021/05/03 03:41:36;;;;;;;4.18;2.45;;;18.00;49.20;;;;;;4923469;29;20150;-84
2021/05/03 03:44:02;;;;;;;3.75;2.22;;;18.00;49.50;;;;;;4940374;29;20605;-81
2021/05/03 03:46:28;;;;;;;6.03;2.80;;;18.00;49.20;;;;;;4923881;29;20162;-83
2021/05/03 03:48:54;;;;;;;3.80;2.50;;;18.00;49.10;;;;;;4925478;29;20181;-82
2021/05/03 03:51:22;;;;;;;3.78;2.38;;;18.00;49.10;;;;;;4958756;29;20164;-83
2021/05/03 03:53:49;;;;;;;5.85;2.50;;;18.00;49.30;;;;;;4942305;29;20162;-83
2021/05/03 03:56:26;;;;;;;3.88;2.38;;;18.00;49.20;;;;;;4941724;29;20280;-84
2021/05/03 03:58:54;;;;;;;4.22;2.47;;;18.00;49.20;;;;;;4941304;29;20180;-83
2021/05/03 04:01:20;;;;;;;4.22;2.72;;;18.00;49.10;;;;;;4925135;29;20309;-83
2021/05/03 04:03:48;;;;;;;4.63;2.47;;;18.00;49.10;;;;;;4926360;29;20644;-83
2021/05/03 04:06:47;;;;;;;3.42;2.58;;;18.00;48.90;;;;;;4941922;29;20208;-83
2021/05/03 04:09:29;;;;;;;3.33;2.30;;;18.00;49.00;;;;;;4930943;29;20709;-82
2021/05/03 04:12:31;;;;;;;3.80;2.50;;;18.10;48.60;;;;;;4944807;29;20161;-82
2021/05/03 04:23:13;;;;;;;4.45;2.30;;;18.20;47.80;;;;;;4943005;29;20188;-82
2021/05/03 04:25:41;;;;;;;4.18;2.30;;;18.20;47.60;;;;;;4942619;29;20177;-82
2021/05/03 04:28:07;;;;;;;3.75;2.40;;;18.20;48.00;;;;;;4940584;29;20154;-84
2021/05/03 04:30:34;;;;;;;3.90;2.35;;;18.30;48.10;;;;;;4924448;29;20212;-83
2021/05/03 04:33:00;;;;;;;3.35;2.50;;;18.20;48.20;;;;;;4923461;29;20169;-82
2021/05/03 04:35:28;;;;;;;3.42;2.20;;;18.20;47.80;;;;;;4939980;29;20197;-84
2021/05/03 04:37:54;;;;;;;3.00;2.05;;;18.20;47.60;;;;;;4940262;29;20161;-83
2021/05/03 04:40:20;;;;;;;3.85;2.30;;;18.20;47.60;;;;;;4923541;29;20158;-84
2021/05/03 04:42:45;;;;;;;4.03;2.30;;;18.30;47.90;;;;;;4923561;29;20224;-83
2021/05/03 04:45:13;;;;;;;3.47;2.40;;;18.30;47.60;;;;;;4923158;29;20178;-83
2021/05/03 04:47:40;;;;;;;3.25;2.45;;;18.30;47.70;;;;;;4939115;29;20181;-83
2021/05/03 04:50:07;;;;;;;3.45;2.10;;;18.30;47.60;;;;;;4923487;29;20491;-84
2021/05/03 04:52:33;;;;;;;3.95;2.33;;;18.30;47.70;;;;;;4941217;29;20266;-84
2021/05/03 04:54:59;;;;;;;2.25;2.05;;;18.30;47.80;;;;;;4942695;29;20185;-83
2021/05/03 04:57:25;;;;;;;4.80;2.42;;;18.30;47.90;;;;;;4926355;29;20216;-83
2021/05/03 04:59:50;;;;;;;3.80;2.25;;;18.30;47.50;;;;;;4941725;29;20292;-82
2021/05/03 05:02:16;;;;;;;3.20;2.30;;;18.30;47.60;;;;;;4959278;29;20164;-83
2021/05/03 05:04:43;;;;;;;3.22;1.98;;;18.30;47.20;;;;;;4942226;29;20161;-84
2021/05/03 05:07:09;;;;;;;3.75;2.20;;;18.30;47.50;;;;;;4941793;29;20185;-84
2021/05/03 05:09:35;;;;;;;4.55;2.40;;;18.40;47.30;;;;;;4959169;29;20213;-84
2021/05/03 05:12:01;;;;;;;6.13;2.70;;;18.40;47.10;;;;;;4925960;29;20158;-82
2021/05/03 05:14:27;;;;;;;4.70;2.20;;;18.40;47.50;;;;;;4959005;29;20688;-83
2021/05/03 05:16:52;;;;;;;2.30;1.90;;;18.40;47.20;;;;;;4941498;29;20692;-83
2021/05/03 05:19:18;;;;;;;2.97;2.22;;;18.40;47.40;;;;;;4926245;29;20158;-83
2021/05/03 05:21:44;;;;;;;3.17;2.15;;;18.40;47.80;;;;;;4941218;29;20592;-83
2021/05/03 05:24:10;;;;;;;2.47;2.17;;;18.40;47.10;;;;;;4925865;29;20176;-82
2021/05/03 05:26:52;;;;;;;2.95;1.92;;;18.40;47.10;;;;;;4925211;29;20655;-83
2021/05/03 05:29:17;;;;;;;5.90;2.20;;;18.50;47.40;;;;;;4942038;29;20248;-83
2021/05/03 05:32:13;;;;;;;3.22;2.30;;;18.40;47.40;;;;;;4957720;29;20196;-83
2021/05/03 05:34:44;;;;;;;3.53;2.30;;;18.40;47.10;;;;;;4940650;29;20526;-83
2021/05/03 05:37:16;;;;;;;3.83;2.25;;;18.50;47.30;;;;;;4925091;29;20643;-83
2021/05/03 05:40:05;;;;;;;4.00;2.40;;;18.50;47.30;;;;;;4940954;29;20166;-83
2021/05/03 05:42:30;;;;;;;5.10;2.45;;;18.40;47.00;;;;;;4940417;29;20204;-83
2021/05/03 05:44:58;;;;;;;2.72;2.13;;;18.40;47.40;;;;;;4940452;29;20170;-84
2021/05/03 05:47:34;;;;;;;3.25;2.30;;;18.40;47.00;;;;;;4940983;29;20607;-83
2021/05/03 05:50:10;;;;;;;2.95;2.30;;;18.40;47.30;;;;;;4939114;29;20243;-84
2021/05/03 05:52:57;;;;;;;4.15;2.28;;;18.40;47.20;;;;;;4941428;29;20562;-82
2021/05/03 05:55:32;;;;;;;2.40;2.10;;;18.40;47.50;;;;;;4924078;29;20664;-83
2021/05/03 05:58:10;;;;;;;3.38;2.13;;;18.40;47.10;;;;;;4940491;29;20181;-82
2021/05/03 06:00:38;;;;;;;3.83;2.45;;;18.40;47.70;;;;;;4957378;28;20740;-83
2021/05/03 06:03:05;;;;;;;4.30;2.20;;;18.40;47.40;;;;;;4939865;28;20208;-82
2021/05/03 06:05:36;;;;;;;2.83;2.13;;;18.40;47.40;;;;;;4923787;29;20242;-83
2021/05/03 06:08:05;;;;;;;4.10;2.40;;;18.40;47.10;;;;;;4925245;29;20169;-82
2021/05/03 06:10:31;;;;;;;3.72;2.03;;;18.40;47.10;;;;;;4924502;29;20165;-83
2021/05/03 06:12:57;;;;;;;2.60;2.00;;;18.40;46.90;;;;;;4924530;29;20181;-82
2021/05/03 06:15:31;;;;;;;2.97;1.95;;;18.50;46.60;;;;;;4940215;29;20185;-82
2021/05/03 06:17:57;;;;;;;2.55;1.90;;;18.50;46.90;;;;;;4941322;29;20261;-83
2021/05/03 06:20:36;;;;;;;2.42;2.05;;;18.50;46.50;;;;;;4925226;29;20182;-83
2021/05/03 06:23:06;;;;;;;5.50;2.40;;;18.50;46.50;;;;;;4941189;29;20150;-83
2021/05/03 06:25:32;;;;;;;3.40;2.00;;;18.50;46.50;;;;;;4940397;29;20610;-83
2021/05/03 06:28:00;;;;;;;4.78;2.05;;;18.50;46.50;;;;;;4925302;29;20193;-84
2021/05/03 06:30:33;;;;;;;4.18;2.10;;;18.50;46.70;;;;;;4924906;29;20252;-83
2021/05/03 06:33:05;;;;;;;4.45;2.33;;;18.50;46.30;;;;;;4941455;29;20188;-84
2021/05/03 06:35:31;;;;;;;4.55;2.10;;;18.50;46.80;;;;;;4941110;29;20329;-84
2021/05/03 06:37:57;;;;;;;2.33;1.92;;;18.50;46.60;;;;;;4925693;29;20189;-83
2021/05/03 06:40:26;;;;;;;3.28;2.20;;;18.40;46.70;;;;;;4924446;29;20675;-84
2021/05/03 06:42:54;;;;;;;3.70;2.20;;;18.50;46.50;;;;;;4909640;29;20172;-83
2021/05/03 06:45:21;;;;;;;4.10;2.08;;;18.60;46.60;;;;;;4924422;29;20696;-83
2021/05/03 06:47:59;;;;;;;2.90;2.17;;;18.50;46.20;;;;;;4924348;29;20248;-85
2021/05/03 06:50:27;;;;;;;2.40;2.10;;;18.50;47.00;;;;;;4940436;29;20173;-83
2021/05/03 06:53:43;;;;;;;2.90;2.03;;;18.50;46.60;;;;;;4942136;29;20189;-83
2021/05/03 06:56:13;;;;;;;3.95;2.05;;;18.50;46.30;;;;;;4943282;29;20204;-83
2021/05/03 06:58:42;;;;;;;3.90;2.20;;;18.50;45.50;;;;;;4930292;29;20240;-83
2021/05/03 07:01:10;;;;;;;4.22;2.38;;;18.60;45.70;;;;;;4931162;29;20221;-84
2021/05/03 07:04:15;;;;;;;4.72;2.00;;;18.60;46.60;;;;;;4930494;29;20173;-83
2021/05/03 07:06:40;;;;;;;3.28;2.10;;;18.50;45.90;;;;;;4960306;29;20165;-83
2021/05/03 07:09:12;;;;;;;2.72;2.00;;;18.60;45.30;;;;;;4925364;29;20566;-83
2021/05/03 07:11:46;;;;;;;2.95;2.20;;;18.60;45.40;;;;;;4926360;29;20571;-84
2021/05/03 07:14:23;;;;;;;3.17;2.10;;;18.60;45.10;;;;;;4945889;29;20639;-83
2021/05/03 07:17:17;;;;;;;3.28;2.28;;;18.60;47.40;;;;;;4940352;29;20291;-83
2021/05/03 07:19:44;;;;;;;3.80;2.30;;;18.50;46.60;;;;;;4959820;29;20525;-84
2021/05/03 07:29:42;;;;;;;2.75;2.20;;;18.50;44.80;;;;;;4961911;28;20293;-83
2021/05/03 07:38:56;;;;;;;2.78;2.05;;;18.50;46.50;;;;;;4963995;28;20217;-84
2021/05/03 07:41:23;;;;;;;2.70;1.90;;;18.50;46.10;;;;;;4912831;29;20177;-84
2021/05/03 07:43:53;;;;;;;2.83;2.10;;;18.60;45.50;;;;;;4945715;29;20193;-84
2021/05/03 07:46:25;;;;;;;2.33;2.03;;;18.60;46.20;;;;;;4947553;29;20268;-84
2021/05/03 07:48:54;;;;;;;3.25;2.00;;;18.50;46.30;;;;;;4947061;29;20177;-83
2021/05/03 07:51:23;;;;;;;2.92;1.90;;;18.60;46.40;;;;;;4930584;29;20265;-84
2021/05/03 07:53:53;;;;;;;2.28;1.80;;;18.60;45.80;;;;;;4929701;29;20181;-83
2021/05/03 07:56:58;;;;;;;2.42;2.17;;;18.70;45.80;;;;;;4932918;29;20608;-84
2021/05/03 07:59:29;;;;;;;4.43;1.90;;;18.70;45.60;;;;;;4947368;28;20203;-84
2021/05/03 08:03:16;;;;;;;;;;;;;;;;;;;;;
2021/05/03 08:09:19;;;;;;;2.25;1.83;;;18.70;45.80;;;;;;4962029;29;20533;-84
2021/05/03 08:12:08;;;;;;;2.20;2.00;;;18.70;45.80;;;;;;4911867;29;20245;-84
2021/05/03 08:15:04;;;;;;;2.67;2.10;;;18.70;45.60;;;;;;4926291;29;20255;-84
2021/05/03 08:17:30;;;;;;;2.75;2.00;;;18.70;45.50;;;;;;4943325;29;20675;-84
2021/05/03 08:19:59;;;;;;;2.63;2.05;;;18.70;45.70;;;;;;4927209;29;20177;-84
2021/05/03 08:25:53;;;;;;;2.40;2.20;;;18.70;46.00;;;;;;4964713;29;20173;-84
2021/05/03 08:29:02;;;;;;;4.18;2.10;;;18.70;45.70;;;;;;4933706;29;20193;-84
2021/05/03 08:31:30;;;;;;;2.83;2.20;;;18.70;46.00;;;;;;4967595;29;20169;-84
2021/05/03 08:33:57;;;;;;;5.10;2.35;;;18.70;46.00;;;;;;4951196;29;20176;-85
2021/05/03 08:36:28;;;;;;;4.65;2.30;;;18.70;45.30;;;;;;4953753;29;20648;-83
2021/05/03 08:38:56;;;;;;;2.33;1.90;;;18.80;46.40;;;;;;4952084;29;20154;-84
2021/05/03 08:41:23;;;;;;;4.43;1.95;;;18.70;45.80;;;;;;4953691;29;20245;-83
2021/05/03 08:53:13;;;;;;;5.50;2.05;;;18.70;45.50;;;;;;4952250;29;20169;-86
2021/05/03 08:55:45;;;;;;;3.00;2.15;;;18.70;46.00;;;;;;4965849;29;20181;-85
2021/05/03 08:58:11;;;;;;;3.38;1.98;;;18.70;45.50;;;;;;4944996;29;20170;-84
2021/05/03 09:00:40;;;;;;;4.82;1.88;;;18.80;45.40;;;;;;4943906;29;20316;-84
2021/05/03 09:03:17;;;;;;;3.70;2.38;;;18.90;45.50;;;;;;4961914;28;20696;-84
2021/05/03 09:05:44;;;;;;;2.65;2.00;;;18.80;45.60;;;;;;4929411;29;20204;-84
2021/05/03 09:08:25;;;;;;;3.28;2.00;;;18.80;45.10;;;;;;4945310;29;20192;-84
2021/05/03 09:10:52;;;;;;;7.65;2.10;;;18.80;45.70;;;;;;4943724;29;20166;-84
2021/05/03 09:13:32;;;;;;;3.28;2.00;;;18.80;45.70;;;;;;4943739;29;20158;-84
2021/05/03 09:16:18;;;;;;;2.38;1.98;;;18.80;45.60;;;;;;4943694;29;20579;-84
2021/05/03 09:18:54;;;;;;;3.92;2.30;;;18.80;45.40;;;;;;4960195;29;20469;-84
2021/05/03 09:32:08;;;;;;;6.05;2.05;;;18.90;45.10;;;;;;4920217;29;20202;-84
2021/05/03 09:34:47;;;;;;;2.65;1.90;;;19.00;45.30;;;;;;4918343;29;20203;-84
2021/05/03 09:37:57;;;;;;;4.15;2.00;;;18.90;45.80;;;;;;4903262;29;20610;-83
2021/05/03 09:40:31;;;;;;;2.85;1.95;;;18.90;45.70;;;;;;4920543;29;20170;-83
2021/05/03 09:43:25;;;;;;;2.97;1.95;;;18.90;45.40;;;;;;4922043;29;20163;-83
2021/05/03 09:45:53;;;;;;;5.60;1.90;;;19.00;45.30;;;;;;4892676;29;20658;-83
2021/05/03 09:48:31;;;;;;;2.65;2.13;;;18.90;45.60;;;;;;4908347;29;20723;-83
2021/05/03 09:51:06;;;;;;;5.07;2.10;;;19.00;45.30;;;;;;4907605;29;20197;-84
2021/05/03 09:53:32;;;;;;;2.85;2.17;;;19.00;45.50;;;;;;4907538;29;20178;-83
2021/05/03 09:55:59;;;;;;;3.20;2.30;;;19.00;45.30;;;;;;4923887;29;20227;-83
2021/05/03 09:58:29;;;;;;;3.03;2.15;;;19.00;45.30;;;;;;4923185;29;20183;-83
2021/05/03 10:00:57;;;;;;;2.35;2.05;;;19.00;45.20;;;;;;4925133;29;20237;-83
2021/05/03 10:06:13;;;;;;;3.55;2.20;;;19.00;45.30;;;;;;4910720;29;20678;-83
2021/05/03 10:08:43;;;;;;;2.03;1.85;;;19.00;45.20;;;;;;4911981;29;20291;-83
2021/05/03 10:11:16;;;;;;;2.92;2.00;;;19.00;45.20;;;;;;4911371;29;20242;-83
2021/05/03 10:13:53;;;;;;;2.88;2.15;;;19.00;45.40;;;;;;4911611;29;20187;-83
2021/05/03 10:16:31;;;;;;;5.07;2.08;;;19.00;45.30;;;;;;4906295;29;20246;-85
2021/05/03 10:19:06;;;;;;;2.42;1.95;;;19.00;45.40;;;;;;4904304;29;20159;-84
2021/05/03 10:21:34;;;;;;;3.83;2.20;;;19.00;45.30;;;;;;4903218;29;20663;-85
2021/05/03 10:24:12;;;;;;;3.42;2.58;;;19.00;45.00;;;;;;4903363;29;20198;-84
2021/05/03 10:26:50;;;;;;;4.40;2.20;;;19.00;45.40;;;;;;4892734;29;20534;-84
2021/05/03 10:29:40;;;;;;;4.43;2.10;;;19.00;45.50;;;;;;4910667;29;20159;-83
2021/05/03 10:32:26;;;;;;;3.42;2.13;;;18.90;45.00;;;;;;4895829;29;20182;-83
2021/05/03 10:35:03;;;;;;;2.38;2.08;;;19.00;45.00;;;;;;4894456;29;20595;-83
2021/05/03 10:37:57;;;;;;;3.15;1.77;;;19.00;45.20;;;;;;4894230;29;20184;-83
2021/05/03 10:40:25;;;;;;;2.72;2.08;;;19.00;45.40;;;;;;4923415;29;20181;-83
2021/05/03 10:43:21;;;;;;;4.78;2.20;;;19.00;45.30;;;;;;4965407;29;20286;-84
2021/05/03 10:52:37;;;;;;;4.53;2.30;;;18.90;45.60;;;;;;4922765;29;20213;-83
2021/05/03 10:55:36;;;;;;;3.92;2.05;;;18.90;45.40;;;;;;4905277;29;20217;-83
2021/05/03 10:58:54;;;;;;;3.17;2.00;;;18.90;45.40;;;;;;4895427;29;20171;-83
2021/05/03 11:01:55;;;;;;;2.72;2.13;;;18.90;45.60;;;;;;4908260;29;20314;-83
2021/05/03 11:05:10;;;;;;;4.50;2.28;;;18.90;45.00;;;;;;4908015;29;20279;-83
2021/05/03 11:08:17;;;;;;;3.45;2.25;;;19.00;45.60;;;;;;4909998;29;20556;-83
2021/05/03 11:14:33;;;;;;;2.28;2.08;;;19.00;45.00;;;;;;4922927;29;20272;-83
2021/05/03 11:17:06;;;;;;;3.50;2.10;;;18.90;45.20;;;;;;4907536;29;20214;-82
2021/05/03 11:20:18;;;;;;;3.90;2.00;;;18.90;45.20;;;;;;4923705;29;20163;-83
2021/05/03 11:30:11;;;;;;;3.58;2.30;;;19.00;44.70;;;;;;4963924;28;20169;-84
2021/05/03 11:46:51;;;;;;;4.03;2.38;;;19.00;44.00;;;;;;4963991;28;20228;-85
2021/05/03 11:49:42;;;;;;;2.15;1.95;;;19.00;44.30;;;;;;4945295;29;20176;-84
2021/05/03 11:56:13;;;;;;;3.42;2.08;;;19.00;44.30;;;;;;4961511;29;20244;-85
2021/05/03 12:02:03;;;;;;;4.97;2.15;;;18.90;44.40;;;;;;4962935;28;20260;-84
2021/05/03 12:05:22;;;;;;;2.67;2.00;;;18.90;44.90;;;;;;4931305;29;20175;-84
2021/05/03 12:08:29;;;;;;;2.22;2.03;;;18.90;44.50;;;;;;4963639;29;20161;-84
2021/05/03 12:11:10;;;;;;;3.10;2.08;;;18.90;44.40;;;;;;4965240;29;20176;-84
2021/05/03 12:13:51;;;;;;;2.47;2.00;;;18.90;44.50;;;;;;4948514;29;20177;-84
2021/05/03 12:16:38;;;;;;;2.83;2.10;;;18.90;44.90;;;;;;4949902;29;20201;-84
2021/05/03 12:22:57;;;;;;;3.20;2.30;;;18.90;45.10;;;;;;4965111;29;20160;-84
2021/05/03 12:29:01;;;;;;;3.40;2.20;;;18.80;44.80;;;;;;4964962;29;20165;-84
2021/05/03 12:31:57;;;;;;;2.53;2.33;;;18.80;44.90;;;;;;4947625;29;20260;-85
2021/05/03 12:34:26;;;;;;;2.67;2.25;;;18.80;44.80;;;;;;4947370;29;20169;-85
2021/05/03 12:37:10;;;;;;;3.53;2.35;;;18.80;45.30;;;;;;4947720;29;20186;-84
2021/05/03 12:40:13;;;;;;;3.60;2.38;;;18.70;44.50;;;;;;4947792;29;20165;-84
2021/05/03 12:42:48;;;;;;;3.83;2.28;;;18.80;44.60;;;;;;4965430;29;20164;-85
2021/05/03 12:45:29;;;;;;;2.55;2.30;;;18.80;44.70;;;;;;4947844;29;20158;-84
2021/05/03 12:56:44;;;;;;;4.90;2.00;;;18.90;44.80;;;;;;4950484;29;20193;-85
2021/05/03 13:02:27;;;;;;;3.67;2.33;;;18.90;44.20;;;;;;4951737;28;20188;-85
2021/05/03 13:05:55;;;;;;;3.03;2.17;;;18.90;44.20;;;;;;4935284;29;20181;-85
2021/05/03 13:12:02;;;;;;;2.80;2.22;;;18.90;44.00;;;;;;4943497;29;20178;-85
2021/05/03 13:29:21;;;;;;;6.35;2.25;;;18.90;44.80;;;;;;4949915;29;20253;-84
2021/05/03 13:31:47;;;;;;;4.40;2.50;;;18.90;44.30;;;;;;4933140;29;20181;-84
2021/05/03 13:34:15;;;;;;;3.00;2.25;;;18.80;44.30;;;;;;4932624;29;20206;-85
2021/05/03 13:36:51;;;;;;;5.78;2.40;;;18.80;44.70;;;;;;4918819;29;20217;-85
2021/05/03 13:39:18;;;;;;;3.50;2.30;;;18.80;44.10;;;;;;4935172;29;20173;-85
2021/05/03 13:41:49;;;;;;;2.55;2.15;;;18.90;44.20;;;;;;4951401;29;20189;-85
2021/05/03 13:44:28;;;;;;;4.13;2.13;;;18.80;44.50;;;;;;4937082;29;20173;-86
2021/05/03 13:54:23;;;;;;;3.67;2.42;;;18.90;44.70;;;;;;4946657;29;20166;-83
2021/05/03 13:57:02;;;;;;;8.63;2.40;;;18.80;44.30;;;;;;4929539;29;20210;-84
2021/05/03 13:59:36;;;;;;;4.72;2.42;;;18.80;44.60;;;;;;4907281;29;20173;-84
2021/05/03 14:02:03;;;;;;;6.65;2.55;;;18.80;44.20;;;;;;4921461;29;20250;-83
2021/05/03 14:04:32;;;;;;;3.78;2.25;;;18.80;44.30;;;;;;4896736;29;20198;-84
2021/05/03 14:07:02;;;;;;;9.60;2.55;;;18.80;44.40;;;;;;4895158;29;20182;-84
2021/05/03 14:09:29;;;;;;;3.05;2.30;;;18.80;44.60;;;;;;4929987;29;20196;-85
2021/05/03 14:11:57;;;;;;;10.13;2.72;;;18.80;44.20;;;;;;4918573;29;20180;-84
2021/05/03 14:14:26;;;;;;;4.10;2.63;;;18.90;44.90;;;;;;4951664;28;20179;-84
2021/05/03 14:16:56;;;;;;;7.45;2.53;;;18.80;44.40;;;;;;4938578;28;20213;-83
2021/05/03 14:19:49;;;;;;;4.53;2.20;;;18.80;44.70;;;;;;4939590;28;20169;-83
2021/05/03 14:22:22;;;;;;;4.25;2.60;;;18.80;44.80;;;;;;4969607;28;20160;-84
2021/05/03 14:24:59;;;;;;;4.25;2.33;;;18.80;44.80;;;;;;4953598;28;20697;-84
2021/05/03 14:34:29;;;;;;;4.53;2.33;;;18.80;44.90;;;;;;4983737;28;20179;-84
2021/05/03 14:37:30;;;;;;;5.82;2.70;;;18.80;44.90;;;;;;4957934;28;20215;-84
2021/05/03 14:40:08;;;;;;;3.10;2.33;;;18.80;44.40;;;;;;4952424;28;20216;-83
2021/05/03 14:42:45;;;;;;;4.47;2.30;;;18.80;44.70;;;;;;4950574;28;20168;-83
2021/05/03 14:45:15;;;;;;;5.50;2.20;;;18.80;44.30;;;;;;4966632;28;20295;-83
2021/05/03 14:54:13;;;;;;;3.95;2.28;;;18.80;44.80;;;;;;4971898;28;20164;-87
2021/05/03 15:10:40;;;;;;;5.85;2.15;;;18.90;44.90;;;;;;4984893;28;20227;-84
2021/05/03 15:23:41;;;;;;;4.80;2.42;;;19.00;43.60;;;;;;4987861;28;20155;-85
2021/05/03 15:26:11;;;;;;;3.25;2.17;;;19.00;43.70;;;;;;4987946;28;20211;-82
2021/05/03 15:28:58;;;;;;;4.72;2.38;;;19.00;44.50;;;;;;4950702;28;20180;-82
2021/05/03 15:34:21;;;;;;;2.90;2.42;;;19.00;43.90;;;;;;4986755;28;20173;-83
2021/05/03 15:40:33;;;;;;;3.67;2.40;;;19.10;43.50;;;;;;4972908;28;20173;-84
2021/05/03 15:43:22;;;;;;;3.08;2.40;;;19.20;43.20;;;;;;4942931;29;20517;-83
2021/05/03 15:46:23;;;;;;;3.95;2.30;;;19.20;43.50;;;;;;4925446;29;20208;-82
2021/05/03 15:48:51;;;;;;;3.58;2.33;;;19.20;43.90;;;;;;4957350;28;20188;-83
2021/05/03 15:51:38;;;;;;;3.17;2.35;;;19.20;43.80;;;;;;4942039;28;20170;-82
2021/05/03 15:54:19;;;;;;;2.65;1.98;;;19.20;43.20;;;;;;4957795;28;20184;-82
2021/05/03 15:56:45;;;;;;;2.83;2.20;;;19.20;43.30;;;;;;4951565;28;20197;-82
2021/05/03 15:59:15;;;;;;;3.08;2.30;;;19.20;43.60;;;;;;4936813;28;20232;-81
2021/05/03 16:01:47;;;;;;;2.30;2.10;;;19.20;43.40;;;;;;4935553;28;20169;-85
2021/05/03 16:04:13;;;;;;;4.95;2.58;;;19.20;43.40;;;;;;4944942;28;20164;-83
2021/05/03 16:06:39;;;;;;;6.25;2.75;;;19.20;43.20;;;;;;4946477;28;20205;-83
2021/05/03 16:09:05;;;;;;;5.45;2.50;;;19.20;44.00;;;;;;4986510;28;20210;-85
2021/05/03 16:11:34;;;;;;;7.00;2.53;;;19.20;43.70;;;;;;4955558;28;20171;-85
2021/05/03 16:14:01;;;;;;;5.07;2.45;;;19.20;43.50;;;;;;4950850;28;20261;-85
2021/05/03 16:16:29;;;;;;;11.30;3.30;;;19.30;43.20;;;;;;4931358;29;20213;-83
2021/05/03 16:18:55;;;;;;;13.60;3.90;;;19.20;43.70;;;;;;4926912;29;20161;-83